Time;durP1;ratioP1;P1;durP2;ratioP2;P2;SDS_P1;SDS_P2;PMS_P1;PMS_P2;Temp;Humidity;BMP_temperature;BMP_pressure;BME280_temperature;BME280_humidity;BME280_pressure;Samples;Min_cycle;Max_cycle;Signal;HPM_P1;HPM_P2
2022/07/03 00:01:00;;;;;;;13.95;9.10;;;;;;;13.71;96.91;101607.09;5095942;28;20048;-45
2022/07/03 00:03:26;;;;;;;17.48;10.20;;;;;;;13.66;97.15;101603.50;5095269;28;20438;-45
2022/07/03 00:05:51;;;;;;;16.63;10.00;;;;;;;13.60;97.78;101598.13;5096213;28;20020;-44
2022/07/03 00:08:16;;;;;;;17.80;11.43;;;;;;;13.53;97.63;101606.53;5095954;28;20024;-46
2022/07/03 00:10:42;;;;;;;23.02;10.48;;;;;;;13.45;97.48;101608.91;5095398;28;20023;-45
2022/07/03 00:13:07;;;;;;;17.85;11.18;;;;;;;13.41;97.60;101597.56;5096002;28;20063;-45
2022/07/03 00:15:32;;;;;;;17.25;10.48;;;;;;;13.34;98.11;101600.78;5096022;28;20028;-46
2022/07/03 00:17:57;;;;;;;16.45;11.27;;;;;;;13.30;98.40;101604.13;5095060;28;20383;-44
2022/07/03 00:20:30;;;;;;;17.48;11.65;;;;;;;13.31;100.00;101611.03;5095775;28;20074;-46
2022/07/03 00:23:01;;;;;;;16.63;11.18;;;;;;;13.29;100.00;101612.72;5095663;28;20449;-44
2022/07/03 00:25:27;;;;;;;18.45;12.38;;;;;;;13.27;100.00;101620.44;5095153;28;20020;-45
2022/07/03 00:27:53;;;;;;;22.02;13.88;;;;;;;13.31;100.00;101626.56;5095764;28;20471;-45
2022/07/03 00:30:18;;;;;;;24.00;16.83;;;;;;;13.35;100.00;101638.81;5095530;28;20030;-44
2022/07/03 00:32:45;;;;;;;25.67;16.10;;;;;;;13.40;100.00;101637.28;5094960;28;20028;-45
2022/07/03 00:35:16;;;;;;;22.07;15.37;;;;;;;13.46;100.00;101642.63;5094535;28;20427;-45
2022/07/03 00:37:41;;;;;;;23.23;15.13;;;;;;;13.42;99.41;101643.34;5095380;28;20051;-44
2022/07/03 00:40:07;;;;;;;24.70;15.52;;;;;;;13.45;99.33;101646.06;5094859;28;20047;-45
2022/07/03 00:42:37;;;;;;;16.38;13.38;;;;;;;13.32;98.44;101643.88;5095312;28;20428;-45
2022/07/03 00:45:06;;;;;;;18.92;14.38;;;;;;;13.30;98.36;101637.78;5095372;28;20047;-46
2022/07/03 00:47:35;;;;;;;19.80;14.45;;;;;;;13.24;98.37;101642.75;5094484;28;20432;-45
2022/07/03 00:50:07;;;;;;;17.58;14.07;;;;;;;13.21;97.85;101638.38;5094922;28;20115;-46
2022/07/03 00:52:33;;;;;;;20.67;15.63;;;;;;;13.27;98.92;101629.91;5094667;28;20052;-44
2022/07/03 00:54:59;;;;;;;18.20;14.93;;;;;;;13.27;98.84;101643.75;5095198;28;20103;-46
2022/07/03 00:57:28;;;;;;;21.95;15.73;;;;;;;13.23;98.30;101635.81;5095373;28;20040;-45
2022/07/03 00:59:54;;;;;;;19.63;15.82;;;;;;;13.22;98.43;101631.47;5094341;28;20040;-46
2022/07/03 01:02:44;;;;;;;22.75;15.52;;;;;;;13.18;98.00;101631.38;5094971;28;20024;-45
2022/07/03 01:05:19;;;;;;;23.00;15.43;;;;;;;13.13;97.73;101640.72;5095171;28;20032;-44
2022/07/03 01:07:47;;;;;;;21.17;15.90;;;;;;;13.11;97.95;101633.72;5094196;28;20429;-44
2022/07/03 01:10:43;;;;;;;22.20;15.98;;;;;;;13.14;97.89;101629.53;5094950;28;20032;-45
2022/07/03 01:13:27;;;;;;;25.00;16.30;;;;;;;13.07;97.55;101637.94;5094694;28;20038;-45
2022/07/03 01:16:04;;;;;;;22.08;17.08;;;;;;;12.98;98.43;101637.63;5095067;28;20024;-45
2022/07/03 01:18:39;;;;;;;22.77;17.52;;;;;;;12.95;98.71;101629.75;5094920;28;20016;-46
2022/07/03 01:21:15;;;;;;;22.08;17.38;;;;;;;12.89;98.87;101638.22;5093786;28;20034;-44
2022/07/03 01:24:00;;;;;;;28.83;19.23;;;;;;;12.88;99.24;101645.94;5094593;28;20466;-45
2022/07/03 01:26:29;;;;;;;24.67;18.23;;;;;;;12.90;99.33;101637.38;5094700;28;20103;-46
2022/07/03 01:28:58;;;;;;;24.63;17.63;;;;;;;12.88;99.29;101640.75;5093869;28;20039;-44
2022/07/03 01:31:25;;;;;;;26.35;18.23;;;;;;;12.88;99.13;101640.75;5094510;28;20111;-45
2022/07/03 01:33:51;;;;;;;27.10;17.70;;;;;;;12.91;99.04;101639.16;5094340;28;20032;-45
2022/07/03 01:36:18;;;;;;;31.75;18.55;;;;;;;12.92;99.09;101640.00;5093690;28;20290;-46
2022/07/03 01:38:43;;;;;;;26.43;17.90;;;;;;;12.98;98.69;101633.31;5094573;28;20035;-47
2022/07/03 01:41:11;;;;;;;31.63;18.48;;;;;;;12.99;98.69;101629.06;5094338;28;20029;-44
2022/07/03 01:43:39;;;;;;;26.83;17.52;;;;;;;12.99;98.63;101634.22;5093483;28;20036;-45
2022/07/03 01:46:04;;;;;;;27.90;16.13;;;;;;;12.85;97.08;101636.34;5094138;28;20093;-44
2022/07/03 01:48:31;;;;;;;23.50;17.13;;;;;;;12.71;96.66;101633.31;5094502;28;20429;-44
2022/07/03 01:50:58;;;;;;;24.90;17.17;;;;;;;12.61;96.94;101636.41;5094019;28;20085;-44
2022/07/03 01:53:29;;;;;;;24.50;17.58;;;;;;;12.57;97.93;101637.13;5094183;28;20124;-44
2022/07/03 01:56:02;;;;;;;30.13;18.55;;;;;;;12.62;99.33;101640.75;5093222;28;20825;-44
2022/07/03 01:58:27;;;;;;;29.38;18.15;;;;;;;12.66;99.31;101630.56;5093974;28;20032;-44
2022/07/03 02:01:04;;;;;;;24.52;17.20;;;;;;;12.72;99.10;101634.16;5093732;28;20380;-44
2022/07/03 02:03:34;;;;;;;27.27;17.42;;;;;;;12.75;98.93;101632.56;5093238;28;20028;-44
2022/07/03 02:06:12;;;;;;;28.70;16.50;;;;;;;12.63;97.48;101632.19;5093762;28;20024;-44
2022/07/03 02:09:16;;;;;;;24.17;15.27;;;;;;;12.58;96.46;101625.97;5093858;28;20038;-46
2022/07/03 02:11:44;;;;;;;22.85;16.25;;;;;;;12.53;98.11;101623.22;5030709;28;20036;-44
2022/07/03 02:14:23;;;;;;;27.10;16.10;;;;;;;12.49;98.41;101623.94;5082981;28;20070;-45
2022/07/03 02:16:56;;;;;;;27.27;15.13;;;;;;;12.41;97.71;101613.34;5092859;28;20035;-45
2022/07/03 02:19:34;;;;;;;24.90;16.52;;;;;;;12.33;97.82;101615.66;5093470;28;20073;-44
2022/07/03 02:22:02;;;;;;;27.10;15.52;;;;;;;12.28;97.72;101611.19;5093491;28;20028;-44
2022/07/03 02:24:33;;;;;;;23.38;15.70;;;;;;;12.28;97.83;101613.75;5092952;28;20028;-44
2022/07/03 02:27:09;;;;;;;25.35;16.48;;;;;;;12.29;98.98;101612.91;5093522;28;20084;-44
2022/07/03 02:29:56;;;;;;;29.35;16.73;;;;;;;12.25;98.54;101619.69;5093428;28;20028;-45
2022/07/03 02:32:23;;;;;;;24.95;15.82;;;;;;;12.22;98.01;101622.16;5092949;28;20055;-45
2022/07/03 02:35:02;;;;;;;25.50;15.18;;;;;;;12.16;97.81;101620.25;5093682;28;20043;-44
2022/07/03 02:37:38;;;;;;;25.58;14.82;;;;;;;12.05;98.12;101621.56;5093479;28;20102;-45
2022/07/03 02:40:07;;;;;;;27.65;15.10;;;;;;;12.11;99.23;101624.38;5092455;28;20085;-45
2022/07/03 02:42:42;;;;;;;27.00;17.33;;;;;;;12.14;100.00;101628.78;5093132;28;20028;-45
2022/07/03 02:45:09;;;;;;;27.42;14.85;;;;;;;12.11;99.33;101626.97;5092447;28;20434;-44
2022/07/03 02:48:04;;;;;;;30.77;17.48;;;;;;;12.13;99.95;101627.88;5093037;28;20479;-45
2022/07/03 02:50:33;;;;;;;24.08;14.90;;;;;;;12.11;100.00;101626.06;5093169;28;20078;-46
2022/07/03 02:53:04;;;;;;;35.22;18.60;;;;;;;12.15;100.00;101622.78;5092037;28;20028;-45
2022/07/03 02:55:39;;;;;;;28.40;16.35;;;;;;;12.14;100.00;101621.03;5093229;28;20026;-45
2022/07/03 02:58:40;;;;;;;27.25;15.40;;;;;;;12.08;99.08;101620.78;5092811;28;20043;-45
2022/07/03 03:01:15;;;;;;;30.55;15.50;;;;;;;12.05;99.06;101618.97;5091817;28;20406;-46
2022/07/03 03:03:50;;;;;;;26.17;14.88;;;;;;;11.97;98.85;101615.25;5092891;28;20456;-45
2022/07/03 03:06:20;;;;;;;24.42;15.20;;;;;;;11.91;99.04;101617.56;5092015;28;20646;-46
2022/07/03 03:08:52;;;;;;;32.55;16.50;;;;;;;11.82;98.60;101621.56;5093012;28;20036;-45
2022/07/03 03:11:32;;;;;;;25.55;16.25;;;;;;;11.81;99.10;101619.81;5092681;28;20051;-45
2022/07/03 03:13:59;;;;;;;28.17;16.98;;;;;;;11.79;99.25;101621.47;5091828;28;20427;-46
2022/07/03 03:16:26;;;;;;;29.98;17.13;;;;;;;11.77;99.69;101628.25;5092803;28;20020;-45
2022/07/03 03:18:51;;;;;;;30.23;18.60;;;;;;;11.73;100.00;101623.81;5093003;28;20025;-45
2022/07/03 03:21:18;;;;;;;30.75;19.02;;;;;;;11.70;100.00;101627.16;5091945;28;20626;-44
2022/07/03 03:23:48;;;;;;;30.77;20.00;;;;;;;11.69;100.00;101627.97;5092664;28;20036;-44
2022/07/03 03:26:17;;;;;;;32.30;19.05;;;;;;;11.67;100.00;101623.56;5092575;28;20112;-45
2022/07/03 03:28:43;;;;;;;35.25;20.52;;;;;;;11.69;100.00;101630.56;5092043;28;20016;-45
2022/07/03 03:31:09;;;;;;;33.67;19.23;;;;;;;11.68;100.00;101627.91;5092760;28;20026;-45
2022/07/03 03:33:47;;;;;;;31.77;19.70;;;;;;;11.72;100.00;101623.75;5092641;28;20103;-45
2022/07/03 03:36:13;;;;;;;;;;;;;;;11.77;99.62;101628.25;5092233;28;20046;-45
2022/07/03 03:38:40;;;;;;;32.90;20.02;;;;;;;11.78;100.00;101635.19;5092471;28;19908;-47
2022/07/03 03:41:06;;;;;;;29.17;19.23;;;;;;;11.79;100.00;101631.78;5091934;28;20028;-44
2022/07/03 03:43:31;;;;;;;32.92;19.40;;;;;;;11.79;100.00;101636.94;5092512;28;20028;-45
2022/07/03 03:45:58;;;;;;;34.28;18.13;;;;;;;11.82;100.00;101637.06;5092707;28;20105;-45
2022/07/03 03:48:24;;;;;;;26.98;18.15;;;;;;;11.88;100.00;101641.59;5091750;28;20102;-45
2022/07/03 03:50:49;;;;;;;33.80;19.90;;;;;;;11.97;100.00;101647.13;5092530;28;20103;-45
2022/07/03 03:53:17;;;;;;;32.00;18.92;;;;;;;12.00;100.00;101636.88;5092349;28;20453;-46
2022/07/03 03:56:09;;;;;;;29.25;19.67;;;;;;;12.01;100.00;101637.78;5091588;28;20036;-45
2022/07/03 03:58:37;;;;;;;34.47;21.15;;;;;;;12.05;100.00;101638.78;5092484;28;20109;-45
2022/07/03 04:01:04;;;;;;;34.38;19.08;;;;;;;12.11;100.00;101641.56;5092047;28;20086;-44
2022/07/03 04:03:30;;;;;;;34.15;20.35;;;;;;;12.19;100.00;101633.25;5091456;28;20048;-45
2022/07/03 04:05:56;;;;;;;30.90;18.98;;;;;;;12.30;100.00;101625.00;5092240;28;20380;-45
2022/07/03 04:08:23;;;;;;;33.95;18.55;;;;;;;12.40;100.00;101629.69;5092278;28;20486;-45
2022/07/03 04:10:48;;;;;;;26.92;16.95;;;;;;;12.40;100.00;101627.09;5092352;28;20035;-45
2022/07/03 04:13:15;;;;;;;31.73;17.45;;;;;;;12.42;100.00;101635.78;5096096;28;20544;-44
2022/07/03 04:15:40;;;;;;;30.58;17.50;;;;;;;12.47;100.00;101639.41;5095972;28;20020;-44
2022/07/03 04:18:06;;;;;;;31.23;16.98;;;;;;;12.50;100.00;101630.88;5094969;28;20387;-45
2022/07/03 04:20:31;;;;;;;25.38;16.63;;;;;;;12.52;100.00;101631.78;5095758;28;20024;-45
2022/07/03 04:22:57;;;;;;;34.13;17.33;;;;;;;12.58;100.00;101641.50;5095992;28;20472;-45
2022/07/03 04:25:23;;;;;;;30.70;15.35;;;;;;;12.61;100.00;101637.28;5095133;28;20028;-45
2022/07/03 04:27:48;;;;;;;27.48;15.60;;;;;;;12.64;100.00;101641.66;5095952;28;20020;-45
2022/07/03 04:30:13;;;;;;;30.50;15.35;;;;;;;12.68;100.00;101643.56;5095561;28;20017;-45
2022/07/03 04:32:39;;;;;;;27.48;15.18;;;;;;;12.65;100.00;101641.75;5094892;28;20494;-45
2022/07/03 04:35:05;;;;;;;25.95;14.95;;;;;;;12.62;100.00;101648.53;5095249;28;20387;-46
2022/07/03 04:37:31;;;;;;;31.25;15.73;;;;;;;12.58;100.00;101655.28;5094695;28;20068;-45
2022/07/03 04:39:56;;;;;;;23.55;15.80;;;;;;;12.62;100.00;101653.69;5095789;28;20063;-46
2022/07/03 04:42:21;;;;;;;28.70;16.25;;;;;;;12.77;100.00;101654.22;5095402;28;20134;-45
2022/07/03 04:44:47;;;;;;;25.55;14.93;;;;;;;12.92;100.00;101656.41;5094586;28;20032;-46
2022/07/03 04:47:14;;;;;;;27.17;14.85;;;;;;;13.10;99.69;101653.53;5095368;28;20460;-44
2022/07/03 04:49:39;;;;;;;30.35;14.10;;;;;;;13.25;98.35;101647.97;5095182;28;20549;-45
2022/07/03 04:52:05;;;;;;;25.52;13.45;;;;;;;13.38;96.58;101651.88;5094612;28;20056;-45
2022/07/03 04:54:30;;;;;;;27.13;13.43;;;;;;;13.51;96.44;101660.88;5095000;28;20386;-46
2022/07/03 04:56:55;;;;;;;22.38;12.73;;;;;;;13.58;95.25;101657.66;5095404;28;20059;-45
2022/07/03 04:59:21;;;;;;;25.05;13.07;;;;;;;13.62;94.60;101656.03;5094113;28;20041;-46
2022/07/03 05:01:47;;;;;;;23.85;13.10;;;;;;;13.62;94.09;101659.50;5095134;28;20028;-46
2022/07/03 05:04:13;;;;;;;23.95;13.63;;;;;;;13.68;94.09;101664.00;5094949;28;20016;-46
2022/07/03 05:06:38;;;;;;;23.80;12.68;;;;;;;13.71;93.67;101658.91;5094333;28;20039;-46
2022/07/03 05:09:03;;;;;;;26.88;12.55;;;;;;;13.73;93.26;101662.41;5095214;28;20020;-45
2022/07/03 05:11:29;;;;;;;27.00;12.98;;;;;;;13.75;92.65;101660.75;5094881;28;20085;-46
2022/07/03 05:13:54;;;;;;;28.80;13.88;;;;;;;13.75;92.87;101660.75;5094071;28;20039;-46
2022/07/03 05:16:19;;;;;;;22.05;12.50;;;;;;;13.79;93.10;101660.00;5094593;28;20072;-45
2022/07/03 05:18:44;;;;;;;27.23;12.98;;;;;;;13.79;91.82;101660.00;5094859;28;20028;-45
2022/07/03 05:21:10;;;;;;;20.75;12.40;;;;;;;13.82;92.45;101662.69;5093459;28;20035;-45
2022/07/03 05:23:35;;;;;;;24.88;12.02;;;;;;;13.89;91.90;101662.88;5094536;28;20028;-45
2022/07/03 05:26:00;;;;;;;25.27;12.65;;;;;;;13.93;92.09;101675.97;5094444;28;20020;-45
2022/07/03 05:28:26;;;;;;;27.85;13.73;;;;;;;13.97;91.16;101666.56;5093718;28;20039;-46
2022/07/03 05:30:51;;;;;;;24.75;13.55;;;;;;;13.97;90.68;101674.34;5094618;28;20091;-45
2022/07/03 05:33:16;;;;;;;22.60;12.75;;;;;;;13.95;91.04;101668.22;5094179;28;20032;-45
2022/07/03 05:35:42;;;;;;;25.10;12.65;;;;;;;13.96;91.41;101670.84;5093797;28;20428;-45
2022/07/03 05:38:07;;;;;;;24.60;12.95;;;;;;;13.94;90.45;101669.94;5094225;28;20028;-47
2022/07/03 05:40:32;;;;;;;21.63;13.38;;;;;;;13.98;90.67;101668.31;5094332;28;20024;-46
2022/07/03 05:42:57;;;;;;;21.27;13.73;;;;;;;14.05;90.62;101678.03;5093477;28;20032;-46
2022/07/03 05:45:23;;;;;;;29.92;13.88;;;;;;;14.11;89.90;101674.72;5094297;28;20078;-46
2022/07/03 05:47:48;;;;;;;21.65;13.77;;;;;;;14.18;90.66;101675.75;5093470;28;20543;-46
2022/07/03 05:50:13;;;;;;;27.42;13.75;;;;;;;14.26;89.95;101679.47;5093939;28;20036;-45
2022/07/03 05:52:39;;;;;;;35.85;14.75;;;;;;;14.33;90.08;101671.91;5094207;28;20095;-46
2022/07/03 05:55:04;;;;;;;25.92;13.68;;;;;;;14.43;90.12;101680.78;5092995;28;20028;-45
2022/07/03 05:57:30;;;;;;;25.67;13.57;;;;;;;14.52;89.27;101681.88;5093890;28;20048;-45
2022/07/03 05:59:55;;;;;;;25.33;14.07;;;;;;;14.64;88.98;101683.13;5093842;28;20127;-45
2022/07/03 06:02:20;;;;;;;23.88;13.25;;;;;;;14.74;89.17;101678.19;5093053;28;20032;-46
2022/07/03 06:04:45;;;;;;;24.92;14.35;;;;;;;14.85;89.30;101675.84;5093919;28;20028;-46
2022/07/03 06:07:11;;;;;;;29.05;13.73;;;;;;;14.96;88.92;101683.09;5093903;28;20092;-45
2022/07/03 06:09:36;;;;;;;24.02;13.55;;;;;;;15.03;89.28;101684.09;5093098;28;20122;-45
2022/07/03 06:12:02;;;;;;;25.75;13.02;;;;;;;15.10;90.06;101688.59;5093626;28;20115;-45
2022/07/03 06:14:27;;;;;;;23.13;13.68;;;;;;;15.21;88.72;101695.75;5093659;28;20028;-46
2022/07/03 06:16:52;;;;;;;22.52;12.18;;;;;;;15.25;87.91;101688.09;5092905;28;20064;-48
2022/07/03 06:19:17;;;;;;;21.75;10.88;;;;;;;15.35;86.59;101696.09;5093357;28;20026;-48
2022/07/03 06:21:44;;;;;;;23.77;12.00;;;;;;;15.48;86.73;101696.41;5093856;28;20459;-45
2022/07/03 06:24:10;;;;;;;20.77;10.85;;;;;;;15.59;87.90;101700.97;5092832;28;20031;-45
2022/07/03 06:26:35;;;;;;;23.27;11.70;;;;;;;15.66;86.82;101697.69;5093687;28;20032;-46
2022/07/03 06:29:01;;;;;;;24.58;11.43;;;;;;;15.74;85.53;101690.94;5093410;28;20043;-46
2022/07/03 06:31:26;;;;;;;24.27;11.13;;;;;;;15.83;86.73;101697.19;5092496;28;20043;-45
2022/07/03 06:33:51;;;;;;;25.70;11.15;;;;;;;15.93;87.29;101699.16;5092543;28;20035;-45
2022/07/03 06:36:16;;;;;;;18.92;10.35;;;;;;;15.99;84.78;101690.63;5093457;28;20028;-47
2022/07/03 06:38:42;;;;;;;24.35;9.35;;;;;;;15.96;84.28;101697.50;5092742;28;20384;-45
2022/07/03 06:41:07;;;;;;;25.45;10.15;;;;;;;15.96;86.41;101704.44;5093272;28;20070;-48
2022/07/03 06:43:32;;;;;;;21.10;9.82;;;;;;;16.00;85.67;101695.84;5093230;28;20028;-46
2022/07/03 06:45:57;;;;;;;19.98;9.80;;;;;;;16.06;87.11;101693.38;5092358;28;20463;-45
2022/07/03 06:48:23;;;;;;;18.63;9.60;;;;;;;16.10;86.17;101696.88;5093077;28;20098;-45
2022/07/03 06:50:48;;;;;;;23.83;10.00;;;;;;;16.17;85.90;101685.78;5093327;28;20043;-45
2022/07/03 06:53:14;;;;;;;22.00;10.20;;;;;;;16.27;85.59;101694.66;5092325;28;20031;-45
2022/07/03 06:55:39;;;;;;;26.63;10.02;;;;;;;16.35;85.59;101689.59;5093004;28;20035;-45
2022/07/03 06:58:04;;;;;;;16.25;8.82;;;;;;;16.44;84.87;101703.63;5092131;28;20467;-46
2022/07/03 07:00:30;;;;;;;23.92;9.07;;;;;;;16.59;83.57;101697.84;5092840;28;20036;-46
2022/07/03 07:02:55;;;;;;;23.35;8.57;;;;;;;16.67;83.20;101695.41;5092951;28;20020;-48
2022/07/03 07:05:21;;;;;;;18.55;8.70;;;;;;;16.76;83.49;101695.56;5091884;28;20453;-46
2022/07/03 07:07:46;;;;;;;20.58;8.48;;;;;;;16.83;81.78;101695.66;5093116;28;20527;-45
2022/07/03 07:10:11;;;;;;;24.48;8.38;;;;;;;16.92;81.21;101690.66;5092681;28;20024;-45
2022/07/03 07:12:36;;;;;;;16.05;8.15;;;;;;;16.99;83.11;101696.81;5092048;28;20053;-46
2022/07/03 07:15:02;;;;;;;23.50;8.10;;;;;;;17.05;81.41;101689.97;5092630;28;20030;-46
2022/07/03 07:17:27;;;;;;;23.13;7.47;;;;;;;17.15;78.59;101700.56;5092679;28;20494;-48
2022/07/03 07:19:55;;;;;;;14.60;6.72;;;;;;;17.25;79.66;101702.47;5092416;28;20032;-45
2022/07/03 07:22:21;;;;;;;18.58;7.97;;;;;;;17.40;80.16;101697.50;5092760;28;20031;-45
2022/07/03 07:24:46;;;;;;;18.65;7.68;;;;;;;17.47;78.06;101692.34;5092864;28;20032;-45
2022/07/03 07:27:11;;;;;;;17.92;7.07;;;;;;;17.60;77.27;101702.13;5091928;28;20559;-45
2022/07/03 07:29:37;;;;;;;17.52;7.07;;;;;;;17.64;76.74;101693.47;5092536;28;20035;-45
2022/07/03 07:32:02;;;;;;;15.43;6.90;;;;;;;17.72;76.34;101698.81;5092531;28;20102;-45
2022/07/03 07:34:27;;;;;;;20.85;7.22;;;;;;;17.76;77.22;101704.06;5091651;28;20032;-47
2022/07/03 07:36:53;;;;;;;12.65;6.22;;;;;;;17.88;77.19;101718.13;5092538;28;20028;-45
2022/07/03 07:39:18;;;;;;;15.50;6.78;;;;;;;17.96;75.13;101716.53;5092569;28;20099;-46
2022/07/03 07:41:43;;;;;;;15.60;6.15;;;;;;;18.02;76.12;101706.16;5091812;28;20031;-46
2022/07/03 07:44:08;;;;;;;19.50;6.38;;;;;;;18.16;75.89;101713.31;5092398;28;20020;-47
2022/07/03 07:46:34;;;;;;;16.27;6.72;;;;;;;18.09;73.37;101713.22;5096079;28;20023;-46
2022/07/03 07:48:59;;;;;;;17.38;6.93;;;;;;;18.15;73.58;101717.63;5095465;28;20083;-45
2022/07/03 07:51:24;;;;;;;17.88;5.70;;;;;;;18.12;70.97;101708.91;5096572;28;20468;-45
2022/07/03 07:53:56;;;;;;;14.32;5.50;;;;;;;18.14;71.36;101709.78;5096510;28;20115;-45
2022/07/03 07:56:22;;;;;;;12.20;4.57;;;;;;;18.23;70.65;101712.50;5095584;28;20024;-46
2022/07/03 07:58:47;;;;;;;15.38;5.32;;;;;;;18.22;70.35;101709.03;5096275;28;20043;-46
2022/07/03 08:06:40;;;;;;;19.95;5.78;;;;;;;18.45;72.33;101715.34;5096536;28;20446;-46
2022/07/03 08:09:06;;;;;;;16.48;7.40;;;;;;;18.46;71.57;101711.91;5095298;28;20480;-48
2022/07/03 08:11:31;;;;;;;20.10;8.23;;;;;;;18.48;71.44;101715.41;5095928;28;20020;-45
2022/07/03 08:13:56;;;;;;;20.73;7.10;;;;;;;18.61;72.66;101721.63;5095943;28;20036;-45
2022/07/03 08:16:21;;;;;;;18.60;6.88;;;;;;;18.71;70.29;101719.13;5095061;28;20059;-45
2022/07/03 08:18:47;;;;;;;16.55;6.90;;;;;;;18.81;70.87;101722.72;5095975;28;20026;-45
2022/07/03 08:21:12;;;;;;;14.93;6.63;;;;;;;18.90;71.19;101724.53;5095987;28;20024;-45
2022/07/03 08:23:38;;;;;;;19.20;7.50;;;;;;;19.00;70.36;101715.06;5095066;28;20024;-46
2022/07/03 08:26:04;;;;;;;18.85;7.30;;;;;;;19.13;69.69;101722.13;5095731;28;20087;-45
2022/07/03 08:28:30;;;;;;;20.48;7.35;;;;;;;19.19;69.03;101716.09;5095704;28;20012;-47
2022/07/03 08:30:55;;;;;;;22.65;7.25;;;;;;;19.39;70.35;101724.97;5095171;28;20032;-46
2022/07/03 08:33:20;;;;;;;17.00;7.50;;;;;;;19.41;67.39;101720.59;5095365;28;20032;-47
2022/07/03 08:35:46;;;;;;;16.20;6.88;;;;;;;19.53;69.95;101721.56;5095887;28;20468;-46
2022/07/03 08:38:11;;;;;;;15.18;6.20;;;;;;;19.50;66.25;101722.41;5094675;28;20028;-45
2022/07/03 08:40:37;;;;;;;11.73;6.10;;;;;;;19.54;66.66;101724.16;5095457;28;20036;-46
2022/07/03 08:43:03;;;;;;;14.63;5.90;;;;;;;19.61;66.70;101724.22;5095267;28;20024;-45
2022/07/03 08:45:29;;;;;;;14.65;5.57;;;;;;;19.75;68.74;101730.38;5094665;28;20509;-45
2022/07/03 08:47:57;;;;;;;12.48;5.60;;;;;;;19.81;64.39;101726.97;5095683;28;20116;-46
2022/07/03 08:50:23;;;;;;;15.77;5.28;;;;;;;19.78;63.25;101714.75;5095383;28;20111;-46
2022/07/03 08:52:49;;;;;;;8.25;4.10;;;;;;;19.91;64.96;101723.56;5094610;28;20099;-47
2022/07/03 08:55:15;;;;;;;14.98;4.55;;;;;;;20.02;65.25;101731.44;5095043;28;20459;-46
2022/07/03 08:57:43;;;;;;;11.20;5.03;;;;;;;20.04;63.15;101727.97;5093495;28;20020;-47
2022/07/03 09:00:11;;;;;;;9.18;4.88;;;;;;;20.10;63.46;101726.25;5095038;28;20044;-47
2022/07/03 09:02:43;;;;;;;14.13;5.68;;;;;;;20.17;62.67;101721.03;5095191;28;20695;-46
2022/07/03 09:05:12;;;;;;;12.13;5.43;;;;;;;20.22;63.13;101721.94;5094157;28;20485;-47
2022/07/03 09:07:40;;;;;;;11.07;4.60;;;;;;;20.31;64.03;101717.56;5094877;28;20585;-45
2022/07/03 09:10:09;;;;;;;16.60;4.75;;;;;;;20.38;63.88;101717.59;5094746;28;20024;-47
2022/07/03 09:12:34;;;;;;;12.23;5.20;;;;;;;20.45;62.59;101715.91;5094266;28;20039;-46
2022/07/03 09:15:01;;;;;;;10.70;4.85;;;;;;;20.54;64.19;101721.16;5094721;28;20028;-46
2022/07/03 09:17:27;;;;;;;10.15;5.18;;;;;;;20.59;61.68;101722.91;5094850;28;20024;-46
2022/07/03 09:19:53;;;;;;;19.73;6.80;;;;;;;20.62;61.42;101709.78;5094095;28;20107;-47
2022/07/03 09:22:32;;;;;;;13.23;5.78;;;;;;;20.71;62.39;101718.59;5094480;28;20063;-47
2022/07/03 09:25:03;;;;;;;11.32;5.57;;;;;;;20.73;61.02;101715.97;5094480;28;20479;-47
2022/07/03 09:27:29;;;;;;;15.95;5.80;;;;;;;20.92;61.02;101727.34;5093843;28;20039;-45
2022/07/03 09:30:00;;;;;;;17.33;6.75;;;;;;;21.02;60.06;101725.59;5094717;28;20024;-45
2022/07/03 09:32:30;;;;;;;10.90;5.72;;;;;;;21.28;60.07;101725.59;5094506;28;20067;-47
2022/07/03 09:35:22;;;;;;;14.40;6.43;;;;;;;21.45;59.71;101728.19;5093616;28;20040;-46
2022/07/03 09:37:49;;;;;;;15.10;6.78;;;;;;;21.52;59.06;101729.03;5094617;28;20024;-46
2022/07/03 09:40:16;;;;;;;16.70;7.90;;;;;;;21.53;59.16;101742.13;5093505;28;20028;-46
2022/07/03 09:42:56;;;;;;;13.07;7.47;;;;;;;21.75;58.59;101742.13;5094217;28;20357;-48
2022/07/03 09:45:21;;;;;;;14.73;8.98;;;;;;;21.56;57.63;101743.91;5093926;28;20081;-48
2022/07/03 09:47:47;;;;;;;13.30;7.40;;;;;;;21.45;58.06;101743.06;5093592;28;20032;-47
2022/07/03 09:50:13;;;;;;;15.02;8.35;;;;;;;21.54;57.68;101743.94;5094294;28;20453;-47
2022/07/03 09:52:40;;;;;;;14.02;8.90;;;;;;;21.84;57.85;101738.63;5094157;28;20020;-46
2022/07/03 09:55:12;;;;;;;13.82;7.60;;;;;;;22.20;59.00;101740.22;5093225;28;20024;-46
2022/07/03 09:57:57;;;;;;;12.80;7.65;;;;;;;22.72;56.97;101737.34;5093963;28;20028;-46
2022/07/03 10:00:24;;;;;;;13.15;6.97;;;;;;;22.84;55.73;101740.75;5093584;28;20434;-47
2022/07/03 10:03:07;;;;;;;13.02;7.45;;;;;;;23.20;55.56;101745.75;5093401;28;20035;-47
2022/07/03 10:05:37;;;;;;;11.93;6.07;;;;;;;23.04;54.28;101738.88;5093990;28;20024;-47
2022/07/03 10:08:11;;;;;;;12.23;6.60;;;;;;;22.61;52.89;101740.91;5092908;28;20028;-45
2022/07/03 10:10:47;;;;;;;11.63;7.45;;;;;;;22.45;53.79;101747.13;5093797;28;20475;-47
2022/07/03 10:13:13;;;;;;;19.85;8.60;;;;;;;22.36;53.78;101730.56;5093857;28;20063;-46
2022/07/03 10:15:40;;;;;;;13.77;7.70;;;;;;;22.47;53.60;101742.75;5092788;28;20380;-46
2022/07/03 10:18:11;;;;;;;12.50;6.97;;;;;;;22.26;54.40;101734.09;5093525;28;20062;-47
2022/07/03 10:20:42;;;;;;;10.95;6.65;;;;;;;22.44;55.03;101737.50;5093565;28;20083;-49
2022/07/03 10:23:08;;;;;;;12.40;6.93;;;;;;;22.48;55.32;101740.13;5092564;28;20024;-45
2022/07/03 10:25:35;;;;;;;13.75;6.43;;;;;;;22.96;52.65;101739.78;5093766;28;20031;-50
2022/07/03 10:28:01;;;;;;;8.88;5.35;;;;;;;23.75;52.14;101748.75;5093625;28;20040;-48
2022/07/03 10:30:27;;;;;;;9.65;5.50;;;;;;;24.47;49.67;101739.94;5092658;28;20024;-47
2022/07/03 10:32:55;;;;;;;9.30;5.72;;;;;;;24.95;47.72;101743.66;5093653;28;20105;-46
2022/07/03 10:35:25;;;;;;;9.18;4.78;;;;;;;25.10;48.03;101750.44;5092975;28;20031;-47
2022/07/03 10:38:15;;;;;;;8.82;4.28;;;;;;;24.90;46.83;101743.72;5092705;28;20106;-45
2022/07/03 10:46:32;;;;;;;8.48;4.25;;;;;;;26.15;43.92;101752.94;5093475;28;20070;-46
2022/07/03 10:49:11;;;;;;;10.38;5.30;;;;;;;25.75;45.00;101755.44;5093160;28;20105;-47
2022/07/03 10:51:45;;;;;;;8.93;4.38;;;;;;;25.09;46.48;101759.25;5092227;28;20020;-46
2022/07/03 10:54:14;;;;;;;8.23;3.83;;;;;;;24.46;46.02;101758.41;5092873;28;20058;-48
2022/07/03 10:56:57;;;;;;;6.15;3.47;;;;;;;24.21;48.52;101764.03;5092937;28;20406;-46
2022/07/03 10:59:46;;;;;;;8.93;4.20;;;;;;;23.97;49.53;101763.41;5092085;28;20071;-46
2022/07/03 11:02:20;;;;;;;12.73;4.55;;;;;;;23.72;49.34;101760.19;5062458;28;20040;-45
2022/07/03 11:05:00;;;;;;;9.13;2.65;;;;;;;23.82;48.14;101761.81;5092163;28;20088;-45
2022/07/03 11:07:42;;;;;;;4.88;1.95;;;;;;;24.78;45.68;101751.84;5092954;28;20039;-45
2022/07/03 11:10:12;;;;;;;7.35;2.17;;;;;;;26.22;44.05;101743.97;5092823;28;20020;-47
2022/07/03 11:12:55;;;;;;;6.30;2.15;;;;;;;27.05;43.69;101751.75;5091927;28;20443;-47
2022/07/03 11:15:32;;;;;;;6.22;1.95;;;;;;;26.84;39.10;101748.72;5092687;28;20028;-46
2022/07/03 11:18:23;;;;;;;4.78;1.85;;;;;;;26.04;40.80;101750.47;5092815;28;20028;-47
2022/07/03 11:20:49;;;;;;;7.43;2.65;;;;;;;25.19;42.55;101750.31;5097629;28;20024;-46
2022/07/03 11:23:26;;;;;;;7.40;2.73;;;;;;;26.04;44.00;101745.19;5099386;28;20081;-45
2022/07/03 11:25:57;;;;;;;10.82;3.30;;;;;;;26.85;40.29;101739.91;5099003;28;20063;-45
2022/07/03 11:28:31;;;;;;;6.22;2.50;;;;;;;28.01;39.09;101734.19;5099656;28;20047;-47
2022/07/03 11:31:15;;;;;;;8.40;3.00;;;;;;;28.75;37.31;101741.69;5099505;28;20471;-46